createdAt,value
2023-07-08T00:01:38.245Z,40.45
2023-07-08T00:04:10.715Z,39.25
2023-07-08T00:06:43.084Z,39.39
2023-07-08T00:09:16.778Z,41.70
2023-07-08T00:11:52.616Z,38.66
2023-07-08T00:14:24.879Z,38.96
2023-07-08T00:16:59.164Z,37.83
2023-07-08T00:19:32.428Z,34.88
2023-07-08T00:22:04.794Z,37.54
2023-07-08T00:24:37.008Z,40.75
2023-07-08T00:27:16.350Z,39.65
2023-07-08T00:29:48.980Z,39.21
2023-07-08T00:32:21.477Z,38.56
2023-07-08T00:34:53.801Z,39.40
2023-07-08T00:37:30.989Z,37.52
2023-07-08T00:40:04.050Z,38.11
2023-07-08T00:42:39.132Z,37.82
2023-07-08T00:45:25.772Z,38.90
2023-07-08T00:48:00.991Z,38.76
2023-07-08T00:50:33.395Z,38.87
2023-07-08T00:53:31.621Z,41.36
2023-07-08T00:56:09.002Z,38.48
2023-07-08T00:58:50.447Z,38.24
2023-07-08T01:01:23.428Z,39.00
2023-07-08T01:04:02.616Z,40.24
2023-07-08T01:06:41.915Z,39.63
2023-07-08T01:09:19.242Z,38.96
2023-07-08T01:11:52.467Z,39.99
2023-07-08T01:14:32.776Z,37.35
2023-07-08T01:17:05.897Z,41.75
2023-07-08T01:19:39.453Z,38.81
2023-07-08T01:22:15.512Z,41.25
2023-07-08T01:24:50.433Z,36.99
2023-07-08T01:27:24.946Z,41.51
2023-07-08T01:29:57.331Z,40.26
2023-07-08T01:32:31.698Z,39.74
2023-07-08T01:35:07.768Z,40.26
2023-07-08T01:37:46.914Z,40.89
2023-07-08T01:40:31.285Z,38.50
2023-07-08T01:43:06.925Z,42.32
2023-07-08T01:45:46.196Z,41.30
2023-07-08T01:48:21.908Z,42.01
2023-07-08T01:51:01.699Z,38.87
2023-07-08T01:53:39.651Z,37.77
2023-07-08T01:56:13.433Z,42.04
2023-07-08T01:58:46.616Z,39.79
2023-07-08T02:01:18.998Z,40.15
2023-07-08T02:03:51.323Z,41.38
2023-07-08T02:06:23.652Z,41.24
2023-07-08T02:09:00.340Z,38.52
2023-07-08T02:11:35.710Z,41.68
2023-07-08T02:14:08.817Z,41.75
2023-07-08T02:16:41.361Z,41.27
2023-07-08T02:19:14.035Z,41.97
2023-07-08T02:21:46.401Z,40.38
2023-07-08T02:24:21.252Z,40.17
2023-07-08T02:26:54.075Z,39.67
2023-07-08T02:29:26.457Z,39.81
2023-07-08T02:31:58.788Z,40.49
2023-07-08T02:34:31.058Z,42.23
2023-07-08T02:37:03.641Z,44.61
2023-07-08T02:39:39.246Z,42.29
2023-07-08T02:42:11.599Z,41.61
2023-07-08T02:44:43.945Z,45.98
2023-07-08T02:47:16.337Z,45.81
2023-07-08T02:49:48.976Z,43.34
2023-07-08T02:52:21.368Z,44.31
2023-07-08T02:54:56.416Z,41.91
2023-07-08T02:57:28.774Z,43.64
2023-07-08T03:00:01.089Z,43.31
2023-07-08T03:02:33.393Z,42.74
2023-07-08T03:05:06.460Z,43.28
2023-07-08T03:07:38.731Z,43.59
2023-07-08T03:10:14.294Z,43.85
2023-07-08T03:12:46.613Z,43.02
2023-07-08T03:15:19.300Z,44.04
2023-07-08T03:17:51.719Z,45.41
2023-07-08T03:20:24.040Z,46.44
2023-07-08T03:22:56.368Z,45.80
2023-07-08T03:25:31.350Z,41.93
2023-07-08T03:28:03.654Z,43.74
2023-07-08T03:30:35.860Z,43.50
2023-07-08T03:33:08.233Z,42.91
2023-07-08T03:35:40.811Z,42.84
2023-07-08T03:38:13.133Z,44.49
2023-07-08T03:40:48.396Z,45.69
2023-07-08T03:43:20.722Z,43.09
2023-07-08T03:45:53.336Z,45.26
2023-07-08T03:48:25.609Z,44.91
2023-07-08T03:50:58.127Z,45.79
2023-07-08T03:53:30.619Z,45.61
2023-07-08T03:56:05.965Z,44.23
2023-07-08T03:58:38.247Z,45.36
2023-07-08T04:01:16.676Z,44.76
2023-07-08T04:03:49.862Z,43.86
2023-07-08T04:06:22.485Z,48.08
2023-07-08T04:08:55.196Z,48.25
2023-07-08T04:11:30.178Z,47.70
2023-07-08T04:14:02.555Z,46.67
2023-07-08T04:16:47.210Z,46.91
2023-07-08T04:19:20.932Z,45.14
2023-07-08T04:21:53.333Z,49.34
2023-07-08T04:24:25.667Z,47.35
2023-07-08T04:27:01.050Z,48.14
2023-07-08T04:29:33.391Z,48.04
2023-07-08T04:32:05.967Z,48.36
2023-07-08T04:34:38.329Z,53.63
2023-07-08T04:37:10.974Z,48.09
2023-07-08T04:39:43.391Z,46.51
2023-07-08T04:42:19.751Z,49.31
2023-07-08T04:44:53.196Z,49.92
2023-07-08T04:47:25.549Z,48.83
2023-07-08T04:49:57.924Z,46.15
2023-07-08T04:52:30.219Z,48.44
2023-07-08T04:55:02.525Z,51.34
2023-07-08T04:57:37.385Z,48.98
2023-07-08T05:00:12.736Z,49.94
2023-07-08T05:02:45.061Z,48.50
2023-07-08T05:05:17.568Z,50.92
2023-07-08T05:07:50.709Z,49.51
2023-07-08T05:10:23.413Z,51.02
2023-07-08T05:12:58.190Z,52.04
2023-07-08T05:15:30.764Z,48.88
2023-07-08T05:18:03.070Z,48.12
2023-07-08T05:20:37.985Z,48.86
2023-07-08T05:23:10.254Z,50.06
2023-07-08T05:25:42.680Z,50.26
2023-07-08T05:28:17.595Z,48.38
2023-07-08T05:30:49.885Z,50.08
2023-07-08T05:33:22.199Z,50.63
2023-07-08T05:35:55.064Z,48.55
2023-07-08T05:38:28.429Z,49.33
2023-07-08T05:41:03.132Z,48.60
2023-07-08T05:43:38.343Z,47.89
2023-07-08T05:46:12.829Z,47.62
2023-07-08T05:48:45.570Z,47.31
2023-07-08T05:51:17.851Z,47.97
2023-07-08T05:53:50.132Z,47.45
2023-07-08T05:56:22.638Z,46.61
2023-07-08T05:58:57.609Z,46.84
2023-07-08T06:01:30.096Z,47.58
2023-07-08T06:04:03.105Z,46.19
2023-07-08T06:06:35.855Z,45.51
2023-07-08T06:09:08.227Z,47.00
2023-07-08T06:11:40.498Z,45.84
2023-07-08T06:14:15.471Z,44.99
2023-07-08T06:16:47.871Z,44.61
2023-07-08T06:19:20.388Z,45.65
2023-07-08T06:21:52.648Z,46.62
2023-07-08T06:24:24.997Z,45.70
2023-07-08T06:26:59.599Z,45.31
2023-07-08T06:29:34.717Z,44.79
2023-07-08T06:32:07.463Z,46.21
2023-07-08T06:34:39.836Z,45.85
2023-07-08T06:37:12.346Z,40.92
2023-07-08T06:39:44.690Z,42.16
2023-07-08T06:42:16.985Z,44.93
2023-07-08T06:44:53.828Z,42.72
2023-07-08T06:47:27.120Z,43.63
2023-07-08T06:49:59.823Z,44.36
2023-07-08T06:52:35.545Z,41.68
2023-07-08T06:55:11.090Z,43.95
2023-07-08T06:57:43.441Z,41.46
2023-07-08T07:00:19.023Z,42.73
2023-07-08T07:02:51.314Z,40.99
2023-07-08T07:05:23.908Z,44.06
2023-07-08T07:07:57.581Z,43.04
2023-07-08T07:10:30.023Z,43.84
2023-07-08T07:13:02.295Z,42.31
2023-07-08T07:15:37.341Z,43.93
2023-07-08T07:18:10.484Z,41.81
2023-07-08T07:20:43.456Z,44.87
2023-07-08T07:23:15.701Z,44.54
2023-07-08T07:25:48.692Z,43.09
2023-07-08T07:28:21.644Z,42.73
2023-07-08T07:31:02.343Z,42.95
2023-07-08T07:33:35.477Z,42.58
2023-07-08T07:36:08.256Z,46.12
2023-07-08T07:38:40.524Z,45.65
2023-07-08T07:41:14.112Z,45.25
2023-07-08T07:43:46.417Z,45.76
2023-07-08T07:46:22.031Z,45.85
2023-07-08T07:48:55.065Z,47.39
2023-07-08T07:51:27.370Z,45.84
2023-07-08T07:53:59.744Z,42.69
2023-07-08T07:56:32.124Z,45.15
2023-07-08T07:59:04.406Z,45.26
2023-07-08T08:01:43.282Z,44.53
2023-07-08T08:04:16.625Z,42.59
2023-07-08T08:06:48.874Z,45.22
2023-07-08T08:09:21.131Z,44.35
2023-07-08T08:11:56.477Z,43.49
2023-07-08T08:14:28.910Z,42.25
2023-07-08T08:17:04.012Z,44.95
2023-07-08T08:19:36.376Z,43.34
2023-07-08T08:22:09.084Z,45.48
2023-07-08T08:24:41.431Z,45.16
2023-07-08T08:27:13.749Z,45.64
2023-07-08T08:29:46.307Z,44.81
2023-07-08T08:32:21.242Z,46.21
2023-07-08T08:34:53.483Z,46.71
2023-07-08T08:37:25.739Z,45.94
2023-07-08T08:39:58.035Z,44.56
2023-07-08T08:42:34.562Z,47.33
2023-07-08T08:45:10.235Z,48.34
2023-07-08T08:47:50.062Z,47.98
2023-07-08T08:50:36.242Z,47.67
2023-07-08T08:53:16.501Z,44.47
2023-07-08T08:55:54.478Z,47.26
2023-07-08T08:58:38.239Z,48.06
2023-07-08T09:01:17.073Z,45.11
2023-07-08T09:03:57.435Z,50.86
2023-07-08T09:06:32.943Z,48.30
2023-07-08T09:09:17.679Z,50.94
2023-07-08T09:12:01.394Z,47.60
2023-07-08T09:14:38.103Z,47.91
2023-07-08T09:17:28.177Z,47.54
2023-07-08T09:20:18.290Z,50.45
2023-07-08T09:22:59.948Z,47.85
2023-07-08T09:25:38.668Z,49.31
2023-07-08T09:28:13.506Z,47.68
2023-07-08T09:30:48.148Z,50.84
2023-07-08T09:33:20.501Z,48.87
2023-07-08T09:35:55.571Z,51.74
2023-07-08T09:38:28.345Z,49.03
2023-07-08T09:41:00.957Z,49.76
2023-07-08T09:43:39.785Z,51.86
2023-07-08T09:46:17.998Z,54.32
2023-07-08T09:48:50.278Z,52.69
2023-07-08T09:51:26.376Z,54.60
2023-07-08T09:53:58.638Z,53.07
2023-07-08T09:56:33.258Z,56.18
2023-07-08T09:59:06.296Z,54.17
2023-07-08T10:01:39.007Z,54.27
2023-07-08T10:04:11.403Z,53.76
2023-07-08T10:06:50.960Z,55.69
2023-07-08T10:09:28.354Z,54.96
2023-07-08T10:12:11.081Z,57.47
2023-07-08T10:14:50.473Z,54.23
2023-07-08T10:17:26.713Z,58.50
2023-07-08T10:19:59.056Z,58.69
2023-07-08T10:22:49.432Z,58.17
2023-07-08T10:25:35.580Z,55.04
2023-07-08T10:28:26.688Z,59.43
2023-07-08T10:31:12.148Z,57.90
2023-07-08T10:34:02.445Z,58.07
2023-07-08T10:36:54.782Z,58.35
2023-07-08T10:39:56.403Z,59.46
2023-07-08T10:42:48.516Z,61.03
2023-07-08T10:45:26.004Z,62.79
2023-07-08T10:48:21.276Z,63.77
2023-07-08T10:51:08.393Z,59.07
2023-07-08T10:53:59.313Z,60.19
2023-07-08T10:56:42.664Z,60.00
2023-07-08T10:59:35.728Z,59.51
2023-07-08T11:02:40.508Z,59.03
2023-07-08T11:05:33.945Z,57.49
2023-07-08T11:08:22.670Z,58.86
2023-07-08T11:11:14.368Z,58.97
2023-07-08T11:13:58.153Z,60.59
2023-07-08T11:16:39.425Z,57.19
2023-07-08T11:19:20.877Z,59.10
2023-07-08T11:21:57.211Z,56.80
2023-07-08T11:24:39.701Z,58.97
2023-07-08T11:27:20.461Z,58.73
2023-07-08T11:30:00.369Z,60.03
2023-07-08T11:32:36.317Z,55.16
2023-07-08T11:35:18.222Z,57.27
2023-07-08T11:37:51.838Z,60.48
2023-07-08T11:40:26.790Z,58.39
2023-07-08T11:43:09.196Z,57.37
2023-07-08T11:45:48.574Z,57.82
2023-07-08T11:48:26.459Z,57.56
2023-07-08T11:51:00.925Z,56.84
2023-07-08T11:53:51.779Z,57.79
2023-07-08T11:56:29.961Z,55.03
2023-07-08T11:59:21.034Z,55.86
2023-07-08T12:01:59.462Z,55.80
2023-07-08T12:04:36.567Z,55.16
2023-07-08T12:07:21.705Z,55.39
2023-07-08T12:10:03.456Z,57.54
2023-07-08T12:12:39.832Z,54.30
2023-07-08T12:15:20.592Z,56.44
2023-07-08T12:17:57.359Z,58.81
2023-07-08T12:20:34.730Z,56.86
2023-07-08T12:23:08.041Z,57.69
2023-07-08T12:25:40.880Z,57.26
2023-07-08T12:28:16.267Z,56.77
2023-07-08T12:30:51.103Z,57.29
2023-07-08T12:33:34.124Z,54.94
2023-07-08T12:36:08.982Z,58.47
2023-07-08T12:38:46.319Z,57.96
2023-07-08T12:41:23.553Z,55.99
2023-07-08T12:43:56.943Z,56.21
2023-07-08T12:46:29.937Z,56.89
2023-07-08T12:49:04.935Z,56.31
2023-07-08T12:51:37.191Z,53.83
2023-07-08T12:54:09.561Z,57.56
2023-07-08T12:56:43.879Z,56.96
2023-07-08T12:59:23.449Z,55.61
2023-07-08T13:01:58.088Z,54.47
2023-07-08T13:04:33.594Z,53.77
2023-07-08T13:07:07.674Z,55.35
2023-07-08T13:09:45.616Z,51.34
2023-07-08T13:12:26.057Z,53.89
2023-07-08T13:15:03.729Z,51.34
2023-07-08T13:17:38.628Z,54.19
2023-07-08T13:20:20.167Z,53.06
2023-07-08T13:22:59.129Z,51.84
2023-07-08T13:25:35.160Z,51.89
2023-07-08T13:28:29.135Z,48.93
2023-07-08T13:31:04.671Z,50.74
2023-07-08T13:33:39.404Z,49.54
2023-07-08T13:36:15.729Z,47.86
2023-07-08T13:38:49.365Z,49.10
2023-07-08T13:41:26.685Z,51.77
2023-07-08T13:44:00.193Z,47.33
2023-07-08T13:46:39.044Z,47.26
2023-07-08T13:49:20.218Z,46.84
2023-07-08T13:51:57.427Z,44.40
2023-07-08T13:54:38.038Z,44.30
2023-07-08T13:57:16.116Z,46.09
2023-07-08T13:59:48.390Z,43.77
2023-07-08T14:02:27.513Z,45.88
2023-07-08T14:05:01.656Z,42.55
2023-07-08T14:07:40.000Z,44.21
2023-07-08T14:10:16.498Z,43.61
2023-07-08T14:12:48.900Z,42.14
2023-07-08T14:15:21.277Z,39.76
2023-07-08T14:17:53.764Z,41.28
2023-07-08T14:20:31.300Z,41.81
2023-07-08T14:23:06.165Z,39.25
2023-07-08T14:25:38.552Z,39.87
2023-07-08T14:28:10.959Z,42.17
2023-07-08T14:30:49.158Z,42.00
2023-07-08T14:33:21.347Z,40.31
2023-07-08T14:35:54.787Z,38.36
2023-07-08T14:38:29.722Z,42.37
2023-07-08T14:41:02.339Z,40.73
2023-07-08T14:43:38.177Z,42.11
2023-07-08T14:46:14.665Z,43.31
2023-07-08T14:48:47.170Z,45.51
2023-07-08T14:51:19.452Z,43.84
2023-07-08T14:53:56.716Z,44.25
2023-07-08T14:56:30.858Z,45.29
2023-07-08T14:59:05.187Z,44.59
2023-07-08T15:01:37.857Z,44.56
2023-07-08T15:04:15.457Z,47.76
2023-07-08T15:06:48.940Z,45.07
2023-07-08T15:09:23.987Z,44.52
2023-07-08T15:11:56.352Z,45.55
2023-07-08T15:14:32.515Z,46.87
2023-07-08T15:17:04.980Z,48.27
2023-07-08T15:19:37.328Z,48.25
2023-07-08T15:22:10.047Z,47.21
2023-07-08T15:24:45.035Z,47.94
2023-07-08T15:27:18.961Z,47.31
2023-07-08T15:29:51.280Z,47.09
2023-07-08T15:32:40.473Z,45.76
2023-07-08T15:35:18.228Z,44.34
2023-07-08T15:37:52.191Z,46.46
2023-07-08T15:40:29.256Z,42.99
2023-07-08T15:43:06.762Z,43.64
2023-07-08T15:45:41.608Z,42.78
2023-07-08T15:48:18.433Z,42.86
2023-07-08T15:50:50.685Z,43.81
2023-07-08T15:53:22.920Z,44.92
2023-07-08T15:55:58.292Z,44.64
2023-07-08T15:58:35.202Z,47.41
2023-07-08T16:01:08.248Z,47.40
2023-07-08T16:03:42.351Z,45.02
2023-07-08T16:06:15.055Z,47.91
2023-07-08T16:08:48.168Z,49.37
2023-07-08T16:11:33.309Z,51.76
2023-07-08T16:14:05.773Z,50.03
2023-07-08T16:16:38.260Z,49.66
2023-07-08T16:19:10.603Z,51.69
2023-07-08T16:21:43.271Z,52.67
2023-07-08T16:24:15.598Z,57.73
2023-07-08T16:26:50.726Z,53.91
2023-07-08T16:29:23.283Z,51.59
2023-07-08T16:31:56.553Z,50.31
2023-07-08T16:34:28.910Z,51.24
2023-07-08T16:37:01.452Z,53.70
2023-07-08T16:39:33.781Z,52.17
2023-07-08T16:42:09.481Z,53.91
2023-07-08T16:44:42.957Z,55.08
2023-07-08T16:47:15.393Z,51.56
2023-07-08T16:49:47.741Z,57.15
2023-07-08T16:52:22.336Z,55.54
2023-07-08T16:54:55.066Z,56.76
2023-07-08T16:57:30.214Z,54.31
2023-07-08T17:00:02.529Z,55.14
2023-07-08T17:02:36.504Z,59.61
2023-07-08T17:05:23.889Z,56.75
2023-07-08T17:07:56.769Z,57.34
2023-07-08T17:10:29.447Z,56.99
2023-07-08T17:13:04.277Z,54.09
2023-07-08T17:15:38.186Z,54.74
2023-07-08T17:18:11.324Z,54.31
2023-07-08T17:20:44.914Z,53.51
2023-07-08T17:23:18.741Z,52.36
2023-07-08T17:25:51.128Z,50.96
2023-07-08T17:28:25.989Z,49.85
2023-07-08T17:30:58.541Z,49.26
2023-07-08T17:33:32.760Z,47.44
2023-07-08T17:36:06.028Z,48.07
2023-07-08T17:38:49.290Z,46.78
2023-07-08T17:41:24.093Z,46.46
2023-07-08T17:44:00.677Z,49.01
2023-07-08T17:46:34.109Z,49.53
2023-07-08T17:49:10.418Z,50.63
2023-07-08T17:51:42.773Z,51.62
2023-07-08T17:54:19.352Z,51.48
2023-07-08T17:56:55.032Z,53.73
2023-07-08T17:59:31.033Z,59.61
2023-07-08T18:02:03.434Z,58.71
2023-07-08T18:04:35.745Z,57.96
2023-07-08T18:07:08.714Z,57.89
2023-07-08T18:09:41.121Z,59.24
2023-07-08T18:12:15.756Z,57.25
2023-07-08T18:14:51.240Z,57.35
2023-07-08T18:17:24.205Z,57.25
2023-07-08T18:19:58.382Z,56.37
2023-07-08T18:22:30.825Z,57.97
2023-07-08T18:25:03.120Z,57.49
2023-07-08T18:27:35.938Z,61.08
2023-07-08T18:30:12.530Z,58.45
2023-07-08T18:32:45.386Z,61.24
2023-07-08T18:35:24.546Z,58.81
2023-07-08T18:37:58.417Z,61.66
2023-07-08T18:40:35.068Z,58.89
2023-07-08T18:43:11.480Z,59.21
2023-07-08T18:45:46.516Z,59.01
2023-07-08T18:48:20.687Z,58.65
2023-07-08T18:50:57.246Z,55.88
2023-07-08T18:53:29.833Z,54.67
2023-07-08T18:56:02.581Z,52.80
2023-07-08T18:58:35.113Z,55.17
2023-07-08T19:01:21.191Z,55.07
2023-07-08T19:03:53.713Z,54.53
2023-07-08T19:06:26.328Z,55.07
2023-07-08T19:08:58.644Z,54.53
2023-07-08T19:11:33.775Z,55.26
2023-07-08T19:14:06.131Z,57.22
2023-07-08T19:16:41.059Z,54.51
2023-07-08T19:19:14.522Z,56.18
2023-07-08T19:21:47.757Z,55.36
2023-07-08T19:24:36.111Z,59.14
2023-07-08T19:27:17.085Z,56.51
2023-07-08T19:29:49.993Z,59.87
2023-07-08T19:32:24.952Z,60.97
2023-07-08T19:34:57.221Z,59.10
2023-07-08T19:37:29.502Z,61.07
2023-07-08T19:40:01.848Z,64.56
2023-07-08T19:42:34.355Z,65.04
2023-07-08T19:45:06.732Z,65.80
2023-07-08T19:47:41.709Z,68.39
2023-07-08T19:50:15.033Z,68.93
2023-07-08T19:52:48.017Z,65.99
2023-07-08T19:55:21.222Z,69.10
2023-07-08T19:57:56.844Z,70.31
2023-07-08T20:00:32.689Z,67.01
2023-07-08T20:03:08.543Z,68.50
2023-07-08T20:05:41.386Z,69.71
2023-07-08T20:08:32.788Z,69.42
2023-07-08T20:11:05.137Z,64.33
2023-07-08T20:13:38.778Z,72.05
2023-07-08T20:16:24.095Z,69.87
2023-07-08T20:19:07.218Z,72.38
2023-07-08T20:21:39.449Z,72.16
2023-07-08T20:24:13.601Z,67.59
2023-07-08T20:26:48.546Z,70.14
2023-07-08T20:29:22.214Z,68.74
2023-07-08T20:31:54.578Z,67.77
2023-07-08T20:34:29.534Z,70.88
2023-07-08T20:37:02.043Z,73.06
2023-07-08T20:39:34.289Z,69.82
2023-07-08T20:42:07.695Z,67.72
2023-07-08T20:44:42.256Z,72.00
2023-07-08T20:47:20.242Z,72.64
2023-07-08T20:49:55.220Z,72.51
2023-07-08T20:52:27.516Z,73.26
2023-07-08T20:54:59.919Z,71.99
2023-07-08T20:57:32.225Z,75.99
2023-07-08T21:00:04.580Z,77.19
2023-07-08T21:02:36.937Z,73.27
2023-07-08T21:05:12.022Z,72.23
2023-07-08T21:07:46.453Z,70.44
2023-07-08T21:10:21.302Z,71.28
2023-07-08T21:12:54.625Z,74.48
2023-07-08T21:15:37.761Z,75.54
2023-07-08T21:18:15.860Z,69.31
2023-07-08T21:20:54.072Z,70.58
2023-07-08T21:23:26.755Z,74.67
2023-07-08T21:26:00.328Z,75.93
2023-07-08T21:28:38.592Z,73.99
2023-07-08T21:31:11.826Z,76.36
2023-07-08T21:33:44.325Z,74.49
2023-07-08T21:36:28.420Z,73.62
2023-07-08T21:39:06.420Z,93.05
2023-07-08T21:41:38.773Z,166.65
2023-07-08T21:44:12.355Z,178.45
2023-07-08T21:46:44.751Z,137.20
2023-07-08T21:49:17.249Z,103.32
2023-07-08T21:51:53.861Z,83.76
2023-07-08T21:54:26.218Z,79.44
2023-07-08T21:56:58.700Z,72.78
2023-07-08T21:59:31.013Z,76.71
2023-07-08T22:02:03.356Z,80.00
2023-07-08T22:04:43.225Z,82.61
2023-07-08T22:07:21.057Z,82.99
2023-07-08T22:09:53.382Z,82.21
2023-07-08T22:12:26.710Z,84.02
2023-07-08T22:15:05.164Z,82.89
2023-07-08T22:17:37.632Z,86.55
2023-07-08T22:20:11.727Z,82.41
2023-07-08T22:22:46.683Z,85.54
2023-07-08T22:25:24.765Z,85.29
2023-07-08T22:27:57.371Z,86.78
2023-07-08T22:30:29.767Z,87.21
2023-07-08T22:33:02.097Z,88.18
2023-07-08T22:35:34.620Z,92.71
2023-07-08T22:38:10.182Z,92.31
2023-07-08T22:40:46.793Z,90.28
2023-07-08T22:43:26.548Z,90.59
2023-07-08T22:45:59.358Z,89.21
2023-07-08T22:48:32.318Z,92.59
2023-07-08T22:51:05.570Z,93.50
2023-07-08T22:53:42.895Z,90.36
2023-07-08T22:56:21.608Z,93.31
2023-07-08T22:58:54.069Z,96.41
2023-07-08T23:01:26.431Z,99.65
2023-07-08T23:03:58.879Z,103.24
2023-07-08T23:06:32.737Z,98.93
2023-07-08T23:09:07.955Z,106.69
2023-07-08T23:11:42.406Z,108.64
2023-07-08T23:14:15.961Z,107.39
2023-07-08T23:16:48.490Z,109.99
2023-07-08T23:19:21.159Z,114.06
2023-07-08T23:21:53.436Z,110.97
2023-07-08T23:24:28.474Z,110.81
2023-07-08T23:27:00.889Z,113.31
2023-07-08T23:29:33.240Z,114.02
2023-07-08T23:32:06.067Z,118.90
2023-07-08T23:34:38.880Z,115.93
2023-07-08T23:37:17.490Z,117.71
2023-07-08T23:39:52.455Z,113.81
2023-07-08T23:42:24.723Z,115.44
2023-07-08T23:44:58.030Z,119.04
2023-07-08T23:47:32.016Z,117.79
2023-07-08T23:50:04.914Z,116.10
2023-07-08T23:52:37.247Z,124.01
2023-07-08T23:55:13.850Z,129.31
2023-07-08T23:57:46.759Z,123.96
